createdAt,value
2018-12-18T00:00:24.710Z,66.60
2018-12-18T00:00:59.262Z,74.75
2018-12-18T00:01:34.490Z,68.78
2018-12-18T00:02:12.802Z,67.03
2018-12-18T00:02:50.822Z,67.35
2018-12-18T00:03:25.630Z,71.70
2018-12-18T00:04:00.342Z,74.10
2018-12-18T00:04:35.103Z,76.07
2018-12-18T00:05:14.784Z,76.97
2018-12-18T00:05:49.462Z,72.45
2018-12-18T00:06:24.203Z,74.67
2018-12-18T00:06:58.883Z,76.30
2018-12-18T00:07:33.504Z,75.47
2018-12-18T00:08:08.143Z,72.82
2018-12-18T00:08:43.026Z,73.28
2018-12-18T00:09:17.873Z,71.72
2018-12-18T00:09:52.502Z,70.25
2018-12-18T00:10:31.164Z,72.03
2018-12-18T00:11:07.890Z,72.45
2018-12-18T00:11:42.530Z,77.37
2018-12-18T00:12:17.242Z,77.35
2018-12-18T00:12:51.923Z,75.57
2018-12-18T00:13:26.583Z,77.22
2018-12-18T00:14:01.242Z,78.50
2018-12-18T00:14:35.942Z,78.42
2018-12-18T00:15:10.590Z,76.92
2018-12-18T00:15:45.270Z,76.20
2018-12-18T00:16:19.982Z,80.65
2018-12-18T00:16:54.702Z,82.02
2018-12-18T00:17:29.342Z,79.62
2018-12-18T00:18:03.882Z,77.90
2018-12-18T00:18:38.482Z,77.55
2018-12-18T00:19:13.130Z,82.67
2018-12-18T00:19:47.762Z,78.97
2018-12-18T00:20:22.342Z,82.55
2018-12-18T00:20:56.982Z,78.07
2018-12-18T00:21:31.563Z,80.32
2018-12-18T00:22:06.862Z,75.97
2018-12-18T00:22:41.383Z,73.65
2018-12-18T00:23:16.043Z,75.42
2018-12-18T00:23:50.642Z,73.05
2018-12-18T00:24:25.503Z,73.37
2018-12-18T00:25:00.082Z,72.78
2018-12-18T00:25:34.741Z,71.25
2018-12-18T00:26:09.242Z,70.08
2018-12-18T00:26:43.964Z,70.50
2018-12-18T00:27:18.503Z,74.00
2018-12-18T00:27:53.143Z,73.97
2018-12-18T00:28:27.743Z,74.55
2018-12-18T00:29:03.362Z,78.40
2018-12-18T00:29:38.024Z,74.40
2018-12-18T00:30:12.622Z,75.60
2018-12-18T00:30:47.202Z,76.47
2018-12-18T00:31:21.910Z,76.70
2018-12-18T00:31:56.685Z,78.52
2018-12-18T00:32:31.223Z,79.92
2018-12-18T00:33:06.022Z,79.70
2018-12-18T00:33:46.084Z,83.80
2018-12-18T00:34:17.463Z,80.62
2018-12-18T00:34:52.282Z,86.05
2018-12-18T00:35:26.983Z,89.37
2018-12-18T00:36:01.602Z,96.05
2018-12-18T00:36:36.283Z,95.12
2018-12-18T00:37:11.022Z,98.27
2018-12-18T00:37:45.522Z,99.62
2018-12-18T00:38:20.165Z,101.78
2018-12-18T00:38:54.602Z,105.75
2018-12-18T00:39:29.204Z,105.95
2018-12-18T00:40:04.330Z,106.25
2018-12-18T00:40:38.963Z,103.47
2018-12-18T00:41:13.761Z,104.43
2018-12-18T00:41:48.522Z,102.90
2018-12-18T00:42:23.183Z,99.67
2018-12-18T00:42:57.825Z,102.62
2018-12-18T00:43:32.422Z,97.65
2018-12-18T00:44:06.982Z,101.00
2018-12-18T00:44:41.862Z,97.33
2018-12-18T00:45:16.502Z,97.12
2018-12-18T00:45:51.182Z,99.17
2018-12-18T00:46:25.843Z,92.27
2018-12-18T00:47:00.423Z,91.32
2018-12-18T00:47:35.210Z,89.77
2018-12-18T00:48:10.002Z,93.35
2018-12-18T00:48:44.823Z,89.72
2018-12-18T00:49:19.476Z,87.78
2018-12-18T00:49:54.262Z,88.62
2018-12-18T00:50:28.862Z,89.42
2018-12-18T00:51:03.622Z,88.37
2018-12-18T00:51:38.302Z,89.40
2018-12-18T00:52:12.970Z,86.60
2018-12-18T00:52:47.562Z,84.22
2018-12-18T00:53:22.230Z,86.37
2018-12-18T00:53:56.862Z,90.50
2018-12-18T00:54:31.704Z,91.20
2018-12-18T00:55:06.304Z,89.05
2018-12-18T00:55:41.150Z,93.35
2018-12-18T00:56:15.704Z,88.92
2018-12-18T00:56:50.322Z,106.35
2018-12-18T00:57:25.002Z,93.85
2018-12-18T00:57:59.624Z,88.03
2018-12-18T00:58:34.144Z,91.67
2018-12-18T00:59:08.643Z,93.17
2018-12-18T00:59:43.262Z,89.28
2018-12-18T01:00:19.906Z,91.78
2018-12-18T01:00:54.664Z,87.65
2018-12-18T01:01:29.311Z,84.83
2018-12-18T01:02:03.923Z,88.62
2018-12-18T01:02:38.762Z,91.97
2018-12-18T01:03:13.290Z,90.38
2018-12-18T01:03:52.735Z,89.35
2018-12-18T01:04:24.742Z,92.53
2018-12-18T01:04:59.283Z,91.20
2018-12-18T01:05:33.922Z,90.20
2018-12-18T01:06:08.623Z,85.20
2018-12-18T01:06:43.363Z,87.80
2018-12-18T01:07:18.570Z,84.28
2018-12-18T01:07:53.551Z,84.58
2018-12-18T01:08:28.404Z,86.08
2018-12-18T01:09:03.162Z,85.85
2018-12-18T01:09:37.903Z,85.90
2018-12-18T01:10:12.423Z,85.55
2018-12-18T01:10:47.223Z,83.87
2018-12-18T01:11:22.023Z,80.77
2018-12-18T01:11:56.724Z,76.90
2018-12-18T01:12:31.323Z,70.03
2018-12-18T01:13:06.063Z,62.73
2018-12-18T01:13:40.571Z,66.10
2018-12-18T01:14:15.204Z,62.40
2018-12-18T01:14:49.925Z,65.78
2018-12-18T01:15:24.750Z,61.55
2018-12-18T01:15:59.383Z,62.95
2018-12-18T01:16:34.322Z,61.13
2018-12-18T01:17:09.043Z,59.95
2018-12-18T01:17:43.762Z,58.25
2018-12-18T01:18:18.384Z,59.33
2018-12-18T01:18:53.143Z,58.52
2018-12-18T01:19:27.743Z,60.78
2018-12-18T01:20:02.402Z,62.55
2018-12-18T01:20:37.043Z,59.13
2018-12-18T01:21:11.704Z,59.20
2018-12-18T01:21:46.643Z,57.08
2018-12-18T01:22:21.348Z,55.98
2018-12-18T01:22:56.083Z,56.77
2018-12-18T01:23:30.811Z,61.08
2018-12-18T01:24:05.723Z,59.90
2018-12-18T01:24:40.364Z,62.05
2018-12-18T01:25:15.003Z,63.90
2018-12-18T01:25:49.623Z,62.05
2018-12-18T01:26:24.282Z,62.05
2018-12-18T01:26:59.084Z,63.13
2018-12-18T01:27:33.704Z,60.73
2018-12-18T01:28:08.302Z,59.33
2018-12-18T01:28:42.863Z,61.30
2018-12-18T01:29:17.463Z,60.43
2018-12-18T01:29:51.971Z,63.68
2018-12-18T01:30:26.603Z,58.70
2018-12-18T01:31:01.304Z,61.50
2018-12-18T01:31:36.103Z,62.03
2018-12-18T01:32:10.723Z,63.42
2018-12-18T01:32:45.988Z,61.83
2018-12-18T01:33:21.311Z,63.15
2018-12-18T01:33:59.474Z,61.73
2018-12-18T01:34:33.829Z,62.93
2018-12-18T01:35:09.027Z,61.33
2018-12-18T01:35:44.128Z,63.98
2018-12-18T01:36:19.134Z,61.37
2018-12-18T01:36:54.128Z,64.95
2018-12-18T01:37:29.329Z,64.30
2018-12-18T01:38:04.369Z,63.48
2018-12-18T01:38:39.410Z,64.97
2018-12-18T01:39:14.549Z,63.10
2018-12-18T01:39:49.729Z,66.35
2018-12-18T01:40:24.887Z,68.42
2018-12-18T01:40:59.992Z,66.05
2018-12-18T01:41:35.450Z,61.92
2018-12-18T01:42:10.707Z,62.73
2018-12-18T01:42:45.910Z,62.78
2018-12-18T01:43:20.912Z,61.88
2018-12-18T01:43:55.975Z,59.77
2018-12-18T01:44:31.026Z,60.33
2018-12-18T01:45:06.347Z,58.05
2018-12-18T01:45:41.490Z,60.48
2018-12-18T01:46:16.610Z,59.85
2018-12-18T01:46:51.673Z,60.83
2018-12-18T01:47:26.809Z,62.75
2018-12-18T01:48:01.927Z,62.78
2018-12-18T01:48:37.108Z,63.30
2018-12-18T01:49:12.626Z,63.23
2018-12-18T01:49:47.821Z,64.70
2018-12-18T01:50:23.067Z,58.68
2018-12-18T01:50:58.109Z,60.55
2018-12-18T01:51:33.328Z,62.43
2018-12-18T01:52:08.595Z,69.90
2018-12-18T01:52:43.671Z,71.00
2018-12-18T01:53:19.090Z,72.87
2018-12-18T01:53:54.227Z,71.85
2018-12-18T01:54:29.388Z,64.07
2018-12-18T01:55:06.869Z,68.12
2018-12-18T01:55:42.147Z,65.22
2018-12-18T01:56:17.381Z,67.82
2018-12-18T01:56:52.370Z,69.00
2018-12-18T01:57:27.388Z,66.75
2018-12-18T01:58:02.731Z,71.65
2018-12-18T01:58:37.828Z,70.17
2018-12-18T01:59:12.989Z,65.62
2018-12-18T01:59:48.029Z,67.30
2018-12-18T02:00:23.129Z,68.62
2018-12-18T02:00:58.428Z,71.87
2018-12-18T02:01:33.449Z,69.92
2018-12-18T02:02:08.548Z,66.30
2018-12-18T02:02:43.736Z,70.57
2018-12-18T02:03:18.833Z,67.90
2018-12-18T02:03:54.129Z,67.32
2018-12-18T02:04:29.187Z,70.08
2018-12-18T02:05:04.540Z,65.70
2018-12-18T02:05:39.850Z,67.45
2018-12-18T02:06:14.875Z,69.55
2018-12-18T02:06:50.089Z,68.85
2018-12-18T02:07:25.229Z,68.22
2018-12-18T02:08:00.191Z,76.17
2018-12-18T02:08:35.348Z,76.12
2018-12-18T02:09:11.372Z,76.55
2018-12-18T02:09:46.491Z,72.42
2018-12-18T02:10:21.468Z,70.75
2018-12-18T02:10:56.789Z,68.45
2018-12-18T02:11:31.947Z,68.22
2018-12-18T02:12:07.247Z,66.37
2018-12-18T02:12:42.596Z,67.67
2018-12-18T02:13:17.608Z,66.25
2018-12-18T02:13:52.811Z,67.95
2018-12-18T02:14:28.007Z,66.97
2018-12-18T02:15:03.429Z,70.65
2018-12-18T02:15:38.671Z,71.95
2018-12-18T02:16:13.866Z,67.65
2018-12-18T02:16:49.052Z,67.45
2018-12-18T02:17:24.251Z,67.30
2018-12-18T02:17:59.268Z,64.55
2018-12-18T02:18:34.390Z,67.08
2018-12-18T02:19:09.690Z,66.87
2018-12-18T02:19:44.852Z,69.35
2018-12-18T02:20:19.911Z,70.97
2018-12-18T02:20:55.149Z,69.35
2018-12-18T02:21:30.590Z,69.25
2018-12-18T02:22:05.775Z,67.75
2018-12-18T02:22:40.731Z,66.02
2018-12-18T02:23:15.809Z,66.15
2018-12-18T02:23:50.789Z,66.87
2018-12-18T02:24:25.949Z,67.78
2018-12-18T02:25:01.092Z,66.95
2018-12-18T02:25:36.129Z,64.80
2018-12-18T02:26:11.230Z,64.42
2018-12-18T02:26:46.450Z,65.60
2018-12-18T02:27:21.550Z,63.83
2018-12-18T02:27:56.750Z,65.85
2018-12-18T02:28:31.830Z,66.95
2018-12-18T02:29:06.932Z,63.52
2018-12-18T02:29:42.069Z,63.75
2018-12-18T02:30:17.472Z,65.30
2018-12-18T02:30:52.750Z,63.78
2018-12-18T02:31:27.935Z,65.65
2018-12-18T02:32:02.949Z,68.28
2018-12-18T02:32:38.053Z,65.75
2018-12-18T02:33:13.135Z,67.70
2018-12-18T02:33:48.569Z,65.22
2018-12-18T02:34:24.005Z,68.37
2018-12-18T02:34:59.015Z,64.95
2018-12-18T02:35:34.293Z,65.32
2018-12-18T02:36:09.764Z,65.87
2018-12-18T02:36:44.913Z,67.08
2018-12-18T02:37:19.964Z,66.33
2018-12-18T02:37:55.047Z,65.57
2018-12-18T02:38:30.149Z,64.45
2018-12-18T02:39:07.359Z,61.68
2018-12-18T02:39:42.574Z,60.55
2018-12-18T02:40:17.888Z,61.10
2018-12-18T02:40:52.989Z,68.20
2018-12-18T02:41:28.050Z,68.90
2018-12-18T02:42:03.256Z,70.12
2018-12-18T02:42:38.567Z,67.10
2018-12-18T02:43:13.788Z,66.28
2018-12-18T02:43:48.780Z,73.10
2018-12-18T02:44:23.830Z,69.75
2018-12-18T02:44:58.890Z,69.05
2018-12-18T02:45:34.069Z,69.60
2018-12-18T02:46:09.270Z,69.58
2018-12-18T02:46:44.473Z,70.05
2018-12-18T02:47:19.868Z,73.15
2018-12-18T02:47:55.216Z,70.15
2018-12-18T02:48:30.451Z,74.05
2018-12-18T02:49:05.752Z,75.87
2018-12-18T02:49:40.874Z,76.90
2018-12-18T02:50:15.891Z,82.88
2018-12-18T02:50:50.910Z,78.05
2018-12-18T02:51:26.028Z,84.72
2018-12-18T02:52:01.103Z,81.02
2018-12-18T02:52:36.192Z,77.62
2018-12-18T02:53:11.292Z,72.60
2018-12-18T02:53:46.349Z,72.92
2018-12-18T02:54:21.578Z,77.30
2018-12-18T02:54:56.791Z,74.87
2018-12-18T02:55:32.030Z,74.25
2018-12-18T02:56:07.110Z,74.85
2018-12-18T02:56:42.497Z,72.20
2018-12-18T02:57:17.857Z,72.82
2018-12-18T02:57:52.888Z,74.72
2018-12-18T02:58:28.013Z,76.67
2018-12-18T02:59:03.049Z,71.10
2018-12-18T02:59:38.271Z,73.92
2018-12-18T03:00:13.284Z,73.87
2018-12-18T03:00:48.731Z,71.87
2018-12-18T03:01:23.832Z,67.45
2018-12-18T03:01:59.095Z,66.22
2018-12-18T03:02:34.292Z,62.65
2018-12-18T03:03:09.413Z,61.30
2018-12-18T03:03:44.510Z,63.75
2018-12-18T03:04:21.783Z,66.12
2018-12-18T03:04:56.912Z,63.92
2018-12-18T03:05:31.993Z,67.30
2018-12-18T03:06:07.336Z,66.12
2018-12-18T03:06:42.771Z,65.72
2018-12-18T03:07:18.089Z,66.55
2018-12-18T03:07:53.430Z,68.30
2018-12-18T03:08:28.651Z,65.32
2018-12-18T03:09:05.652Z,67.03
2018-12-18T03:09:40.771Z,64.07
2018-12-18T03:10:15.872Z,66.60
2018-12-18T03:10:51.257Z,65.37
2018-12-18T03:11:26.523Z,64.92
2018-12-18T03:12:01.809Z,64.27
2018-12-18T03:12:37.232Z,66.17
2018-12-18T03:13:12.374Z,66.67
2018-12-18T03:13:47.633Z,63.15
2018-12-18T03:14:22.848Z,67.22
2018-12-18T03:14:58.214Z,65.30
2018-12-18T03:15:33.313Z,71.85
2018-12-18T03:16:08.491Z,76.90
2018-12-18T03:16:43.747Z,73.00
2018-12-18T03:17:19.173Z,78.33
2018-12-18T03:17:54.492Z,76.97
2018-12-18T03:18:29.828Z,71.05
2018-12-18T03:19:05.155Z,69.97
2018-12-18T03:19:40.495Z,74.15
2018-12-18T03:20:15.670Z,76.22
2018-12-18T03:20:51.011Z,68.83
2018-12-18T03:21:26.211Z,70.90
2018-12-18T03:22:01.330Z,68.47
2018-12-18T03:22:36.512Z,71.62
2018-12-18T03:23:11.874Z,69.90
2018-12-18T03:23:47.182Z,68.33
2018-12-18T03:24:22.331Z,63.05
2018-12-18T03:24:57.712Z,63.98
2018-12-18T03:25:32.910Z,62.43
2018-12-18T03:26:08.245Z,61.28
2018-12-18T03:26:43.751Z,60.63
2018-12-18T03:27:18.888Z,61.65
2018-12-18T03:27:53.934Z,62.78
2018-12-18T03:28:29.247Z,65.05
2018-12-18T03:29:04.549Z,66.80
2018-12-18T03:29:39.693Z,64.37
2018-12-18T03:30:14.837Z,67.32
2018-12-18T03:30:50.072Z,83.75
2018-12-18T03:31:25.493Z,85.80
2018-12-18T03:32:05.795Z,68.67
2018-12-18T03:32:44.837Z,69.55
2018-12-18T03:33:20.250Z,64.25
2018-12-18T03:33:55.635Z,62.88
2018-12-18T03:34:30.871Z,66.35
2018-12-18T03:35:06.031Z,78.33
2018-12-18T03:35:41.383Z,76.40
2018-12-18T03:36:16.494Z,77.62
2018-12-18T03:36:52.075Z,61.83
2018-12-18T03:37:27.389Z,67.72
2018-12-18T03:38:02.792Z,71.15
2018-12-18T03:38:37.810Z,68.07
2018-12-18T03:39:13.033Z,70.80
2018-12-18T03:39:48.066Z,72.35
2018-12-18T03:40:23.286Z,69.55
2018-12-18T03:40:58.828Z,68.10
2018-12-18T03:41:33.404Z,67.17
2018-12-18T03:42:08.063Z,66.97
2018-12-18T03:42:42.643Z,71.67
2018-12-18T03:43:17.184Z,70.62
2018-12-18T03:43:52.108Z,71.67
2018-12-18T03:44:27.207Z,79.58
2018-12-18T03:45:02.509Z,82.95
2018-12-18T03:45:37.633Z,83.50
2018-12-18T03:46:12.771Z,83.78
2018-12-18T03:46:48.209Z,90.38
2018-12-18T03:47:23.432Z,83.55
2018-12-18T03:47:58.709Z,79.05
2018-12-18T03:48:33.866Z,82.02
2018-12-18T03:49:09.227Z,87.72
2018-12-18T03:49:44.405Z,81.92
2018-12-18T03:50:19.766Z,80.20
2018-12-18T03:50:54.907Z,80.90
2018-12-18T03:51:30.673Z,79.67
2018-12-18T03:52:05.746Z,78.00
2018-12-18T03:52:40.812Z,76.22
2018-12-18T03:53:15.925Z,78.30
2018-12-18T03:53:51.225Z,72.17
2018-12-18T03:54:26.599Z,75.42
2018-12-18T03:55:01.952Z,77.10
2018-12-18T03:55:37.208Z,74.77
2018-12-18T03:56:12.326Z,73.20
2018-12-18T03:56:47.365Z,73.87
2018-12-18T03:57:22.588Z,71.15
2018-12-18T03:57:57.806Z,69.53
2018-12-18T03:58:32.747Z,71.65
2018-12-18T03:59:07.967Z,69.58
2018-12-18T03:59:43.167Z,66.02
2018-12-18T04:00:18.308Z,67.45
2018-12-18T04:00:53.287Z,66.42
2018-12-18T04:01:28.607Z,68.30
2018-12-18T04:02:04.107Z,69.65
2018-12-18T04:02:39.226Z,69.10
2018-12-18T04:03:14.607Z,69.37
2018-12-18T04:03:49.791Z,67.72
2018-12-18T04:04:24.887Z,67.87
2018-12-18T04:05:00.048Z,63.98
2018-12-18T04:05:35.212Z,63.33
2018-12-18T04:06:10.226Z,65.00
2018-12-18T04:06:45.530Z,63.60
2018-12-18T04:07:20.612Z,65.67
2018-12-18T04:07:55.806Z,61.00
2018-12-18T04:08:31.147Z,67.55
2018-12-18T04:09:08.163Z,65.45
2018-12-18T04:09:43.330Z,64.47
2018-12-18T04:10:18.473Z,65.87
2018-12-18T04:10:53.547Z,64.00
2018-12-18T04:11:28.674Z,60.25
2018-12-18T04:12:08.870Z,64.40
2018-12-18T04:12:44.293Z,61.15
2018-12-18T04:13:19.508Z,61.65
2018-12-18T04:13:54.771Z,62.50
2018-12-18T04:14:30.017Z,60.52
2018-12-18T04:15:05.522Z,59.58
2018-12-18T04:15:40.790Z,61.98
2018-12-18T04:16:16.313Z,61.08
2018-12-18T04:16:51.486Z,60.48
2018-12-18T04:17:26.686Z,63.45
2018-12-18T04:18:01.807Z,58.25
2018-12-18T04:18:37.087Z,55.50
2018-12-18T04:19:12.251Z,57.55
2018-12-18T04:19:47.588Z,58.50
2018-12-18T04:20:22.908Z,56.00
2018-12-18T04:20:58.050Z,58.35
2018-12-18T04:21:33.247Z,55.12
2018-12-18T04:22:08.286Z,55.30
2018-12-18T04:22:43.405Z,55.15
2018-12-18T04:23:18.626Z,52.88
2018-12-18T04:23:53.547Z,52.45
2018-12-18T04:24:28.769Z,55.25
2018-12-18T04:25:04.216Z,53.35
2018-12-18T04:25:39.371Z,55.70
2018-12-18T04:26:14.804Z,55.25
2018-12-18T04:26:50.108Z,54.38
2018-12-18T04:27:25.369Z,55.15
2018-12-18T04:28:00.487Z,54.30
2018-12-18T04:28:35.565Z,51.77
2018-12-18T04:29:10.631Z,52.03
2018-12-18T04:29:45.761Z,52.35
2018-12-18T04:30:20.774Z,54.45
2018-12-18T04:30:55.947Z,53.48
2018-12-18T04:31:31.188Z,57.15
2018-12-18T04:32:06.486Z,56.40
2018-12-18T04:32:41.667Z,54.33
2018-12-18T04:33:23.568Z,55.30
2018-12-18T04:33:58.770Z,54.38
2018-12-18T04:34:33.906Z,56.00
2018-12-18T04:35:09.152Z,53.92
2018-12-18T04:35:44.469Z,54.93
2018-12-18T04:36:19.565Z,55.15
2018-12-18T04:36:54.626Z,55.30
2018-12-18T04:37:29.829Z,52.85
2018-12-18T04:38:04.967Z,57.65
2018-12-18T04:38:40.171Z,54.93
2018-12-18T04:39:15.404Z,58.05
2018-12-18T04:39:50.669Z,57.38
2018-12-18T04:40:25.952Z,56.50
2018-12-18T04:41:01.031Z,54.55
2018-12-18T04:41:36.208Z,53.45
2018-12-18T04:42:11.590Z,57.40
2018-12-18T04:42:46.887Z,55.63
2018-12-18T04:43:22.185Z,53.68
2018-12-18T04:43:57.423Z,56.05
2018-12-18T04:44:33.350Z,55.88
2018-12-18T04:45:08.712Z,55.33
2018-12-18T04:45:43.727Z,51.95
2018-12-18T04:46:18.930Z,54.67
2018-12-18T04:46:54.166Z,54.88
2018-12-18T04:47:29.533Z,54.53
2018-12-18T04:48:04.745Z,54.20
2018-12-18T04:48:39.949Z,55.45
2018-12-18T04:49:15.267Z,50.45
2018-12-18T04:49:50.391Z,53.58
2018-12-18T04:50:25.468Z,56.70
2018-12-18T04:51:00.652Z,55.67
2018-12-18T04:51:35.805Z,55.52
2018-12-18T04:52:11.165Z,54.27
2018-12-18T04:52:46.488Z,54.75
2018-12-18T04:53:21.828Z,55.05
2018-12-18T04:53:56.767Z,54.20
2018-12-18T04:54:31.868Z,53.83
2018-12-18T04:55:07.115Z,56.83
2018-12-18T04:55:42.348Z,56.28
2018-12-18T04:56:17.524Z,55.00
2018-12-18T04:56:52.649Z,53.90
2018-12-18T04:57:27.726Z,54.33
2018-12-18T04:58:02.786Z,55.30
2018-12-18T04:58:38.011Z,52.53
2018-12-18T04:59:13.189Z,53.75
2018-12-18T04:59:48.266Z,53.48
2018-12-18T05:00:23.485Z,53.78
2018-12-18T05:00:58.466Z,57.98
2018-12-18T05:01:33.467Z,55.40
2018-12-18T05:02:08.609Z,54.65
2018-12-18T05:02:43.786Z,56.42
2018-12-18T05:03:19.007Z,51.65
2018-12-18T05:03:54.231Z,52.73
2018-12-18T05:04:29.167Z,55.48
2018-12-18T05:05:04.607Z,61.18
2018-12-18T05:05:39.688Z,59.45
2018-12-18T05:06:14.706Z,59.70
2018-12-18T05:06:49.876Z,63.63
2018-12-18T05:07:24.967Z,66.05
2018-12-18T05:08:00.006Z,63.65
2018-12-18T05:08:35.225Z,61.92
2018-12-18T05:09:11.028Z,59.20
2018-12-18T05:09:46.158Z,60.15
2018-12-18T05:10:21.227Z,65.30
2018-12-18T05:10:56.350Z,65.30
2018-12-18T05:11:31.528Z,62.90
2018-12-18T05:12:06.669Z,64.82
2018-12-18T05:12:41.646Z,65.32
2018-12-18T05:13:16.808Z,66.30
2018-12-18T05:13:58.225Z,66.15
2018-12-18T05:14:33.590Z,64.55
2018-12-18T05:15:08.748Z,65.15
2018-12-18T05:15:43.727Z,65.85
2018-12-18T05:16:18.887Z,66.37
2018-12-18T05:16:54.129Z,67.58
2018-12-18T05:17:29.390Z,67.22
2018-12-18T05:18:04.666Z,66.97
2018-12-18T05:18:39.794Z,64.95
2018-12-18T05:19:15.186Z,65.37
2018-12-18T05:19:50.330Z,63.85
2018-12-18T05:20:25.411Z,64.75
2018-12-18T05:21:00.472Z,67.15
2018-12-18T05:21:35.405Z,65.20
2018-12-18T05:22:10.546Z,62.83
2018-12-18T05:22:45.665Z,61.88
2018-12-18T05:23:20.813Z,62.33
2018-12-18T05:23:56.245Z,85.92
2018-12-18T05:24:31.527Z,86.37
2018-12-18T05:25:06.727Z,94.13
2018-12-18T05:25:41.888Z,86.32
2018-12-18T05:26:16.891Z,72.80
2018-12-18T05:26:51.956Z,77.72
2018-12-18T05:27:26.594Z,75.15
2018-12-18T05:28:01.175Z,69.35
2018-12-18T05:28:35.843Z,71.87
2018-12-18T05:29:10.495Z,72.67
2018-12-18T05:29:45.115Z,69.67
2018-12-18T05:30:19.816Z,70.25
2018-12-18T05:30:54.543Z,67.78
2018-12-18T05:31:29.137Z,70.52
2018-12-18T05:32:03.795Z,70.78
2018-12-18T05:32:38.362Z,78.50
2018-12-18T05:33:13.025Z,80.67
2018-12-18T05:33:47.719Z,85.60
2018-12-18T05:34:22.236Z,82.45
2018-12-18T05:34:56.841Z,73.42
2018-12-18T05:35:31.555Z,69.72
2018-12-18T05:36:06.256Z,69.65
2018-12-18T05:36:40.916Z,69.55
2018-12-18T05:37:15.683Z,85.87
2018-12-18T05:37:50.335Z,88.65
2018-12-18T05:38:25.456Z,90.77
2018-12-18T05:39:00.155Z,86.12
2018-12-18T05:39:34.877Z,91.10
2018-12-18T05:40:09.719Z,91.63
2018-12-18T05:40:44.535Z,90.67
2018-12-18T05:41:19.215Z,89.60
2018-12-18T05:41:53.895Z,88.03
2018-12-18T05:42:28.474Z,87.53
2018-12-18T05:43:03.036Z,80.45
2018-12-18T05:43:37.596Z,81.78
2018-12-18T05:44:12.114Z,81.47
2018-12-18T05:44:46.875Z,71.45
2018-12-18T05:45:21.575Z,71.53
2018-12-18T05:45:56.275Z,66.40
2018-12-18T05:46:30.898Z,65.10
2018-12-18T05:47:05.495Z,61.33
2018-12-18T05:47:40.223Z,66.45
2018-12-18T05:48:14.814Z,69.97
2018-12-18T05:48:49.375Z,69.45
2018-12-18T05:49:24.295Z,63.70
2018-12-18T05:49:59.057Z,63.40
2018-12-18T05:50:33.636Z,61.92
2018-12-18T05:51:08.317Z,63.02
2018-12-18T05:51:42.955Z,61.00
2018-12-18T05:52:17.536Z,58.70
2018-12-18T05:52:52.256Z,59.83
2018-12-18T05:53:26.917Z,56.58
2018-12-18T05:54:01.576Z,58.87
2018-12-18T05:54:36.236Z,56.10
2018-12-18T05:55:10.896Z,54.77
2018-12-18T05:55:45.475Z,57.83
2018-12-18T05:56:20.136Z,56.33
2018-12-18T05:56:54.776Z,53.80
2018-12-18T05:57:29.535Z,52.80
2018-12-18T05:58:04.114Z,53.60
2018-12-18T05:58:38.703Z,52.65
2018-12-18T05:59:13.297Z,52.17
2018-12-18T05:59:47.937Z,52.80
2018-12-18T06:00:23.026Z,51.40
2018-12-18T06:00:58.067Z,51.18
2018-12-18T06:01:33.276Z,49.27
2018-12-18T06:02:08.474Z,50.85
2018-12-18T06:02:43.592Z,48.75
2018-12-18T06:03:18.846Z,49.45
2018-12-18T06:03:54.166Z,48.25
2018-12-18T06:04:29.495Z,48.68
2018-12-18T06:05:04.688Z,48.20
2018-12-18T06:05:40.809Z,46.75
2018-12-18T06:06:15.992Z,49.65
2018-12-18T06:06:50.870Z,50.63
2018-12-18T06:07:25.509Z,50.50
2018-12-18T06:08:00.138Z,50.48
2018-12-18T06:08:36.829Z,51.48
2018-12-18T06:09:12.168Z,50.85
2018-12-18T06:09:48.735Z,51.70
2018-12-18T06:10:29.909Z,52.08
2018-12-18T06:11:04.849Z,53.05
2018-12-18T06:11:39.557Z,55.08
2018-12-18T06:12:14.489Z,56.55
2018-12-18T06:13:58.110Z,54.55
2018-12-18T06:14:33.548Z,48.60
2018-12-18T06:15:14.128Z,50.43
2018-12-18T06:15:49.877Z,53.00
2018-12-18T06:16:26.511Z,50.30
2018-12-18T06:17:02.331Z,51.95
2018-12-18T06:17:37.983Z,49.15
2018-12-18T06:18:15.950Z,53.30
2018-12-18T06:18:54.689Z,53.23
2018-12-18T06:19:29.909Z,53.70
2018-12-18T06:20:07.012Z,54.98
2018-12-18T06:20:41.971Z,54.60
2018-12-18T06:21:17.832Z,53.23
2018-12-18T06:21:52.439Z,53.25
2018-12-18T06:22:27.281Z,52.55
2018-12-18T06:23:02.100Z,53.30
2018-12-18T06:23:37.932Z,51.98
2018-12-18T06:24:13.291Z,51.73
2018-12-18T06:24:47.851Z,52.53
2018-12-18T06:25:26.452Z,53.83
2018-12-18T06:26:05.219Z,51.53
2018-12-18T06:26:40.583Z,53.10
2018-12-18T06:27:15.689Z,52.20
2018-12-18T06:27:51.570Z,52.65
2018-12-18T06:28:26.848Z,52.15
2018-12-18T06:29:01.908Z,52.83
2018-12-18T06:29:37.902Z,51.00
2018-12-18T06:30:13.042Z,51.33
2018-12-18T06:30:50.258Z,51.95
2018-12-18T06:31:25.553Z,52.67
2018-12-18T06:32:02.439Z,53.02
2018-12-18T06:32:37.526Z,52.58
2018-12-18T06:33:13.544Z,49.77
2018-12-18T06:33:48.765Z,50.45
2018-12-18T06:34:25.700Z,52.75
2018-12-18T06:35:02.216Z,51.37
2018-12-18T06:35:39.005Z,52.58
2018-12-18T06:36:15.166Z,51.85
2018-12-18T06:36:52.369Z,51.90
2018-12-18T06:37:29.013Z,53.55
2018-12-18T06:38:04.335Z,50.83
2018-12-18T06:38:40.307Z,54.05
2018-12-18T06:39:15.442Z,53.48
2018-12-18T06:39:51.673Z,53.30
2018-12-18T06:40:28.112Z,51.53
2018-12-18T06:41:06.090Z,55.40
2018-12-18T06:41:41.570Z,53.02
2018-12-18T06:42:16.820Z,52.67
2018-12-18T06:42:53.386Z,56.63
2018-12-18T06:43:28.027Z,55.30
2018-12-18T06:44:03.407Z,53.38
2018-12-18T06:44:39.427Z,54.73
2018-12-18T06:45:14.386Z,53.50
2018-12-18T06:45:51.867Z,53.30
2018-12-18T06:46:28.028Z,52.88
2018-12-18T06:47:06.909Z,53.38
2018-12-18T06:47:41.667Z,52.00
2018-12-18T06:48:18.415Z,51.75
2018-12-18T06:48:55.987Z,51.95
2018-12-18T06:49:32.468Z,56.28
2018-12-18T06:50:07.529Z,55.65
2018-12-18T06:50:43.369Z,56.60
2018-12-18T06:51:19.007Z,58.00
2018-12-18T06:51:53.707Z,59.42
2018-12-18T06:52:30.155Z,57.08
2018-12-18T06:53:04.807Z,60.20
2018-12-18T06:53:43.788Z,56.53
2018-12-18T06:54:22.028Z,57.60
2018-12-18T06:54:58.949Z,57.03
2018-12-18T06:55:33.649Z,55.05
2018-12-18T06:56:14.007Z,54.67
2018-12-18T06:56:50.810Z,51.98
2018-12-18T06:57:25.813Z,50.28
2018-12-18T06:58:00.512Z,50.80
2018-12-18T06:58:41.193Z,52.55
2018-12-18T06:59:20.133Z,54.13
2018-12-18T06:59:55.472Z,53.98
2018-12-18T07:00:35.172Z,53.13
2018-12-18T07:01:10.180Z,56.20
2018-12-18T07:01:44.732Z,56.13
2018-12-18T07:02:20.532Z,59.00
2018-12-18T07:02:55.392Z,62.58
2018-12-18T07:03:30.693Z,61.58
2018-12-18T07:04:05.352Z,61.68
2018-12-18T07:04:40.812Z,58.35
2018-12-18T07:05:16.910Z,61.10
2018-12-18T07:05:52.460Z,58.15
2018-12-18T07:06:27.372Z,54.33
2018-12-18T07:07:03.063Z,52.73
2018-12-18T07:07:39.631Z,50.58
2018-12-18T07:08:15.230Z,52.60
2018-12-18T07:08:50.070Z,52.50
2018-12-18T07:09:27.150Z,50.65
2018-12-18T07:10:03.290Z,51.53
2018-12-18T07:10:37.850Z,50.43
2018-12-18T07:11:13.904Z,51.40
2018-12-18T07:11:48.971Z,50.43
2018-12-18T07:12:28.971Z,51.90
2018-12-18T07:13:03.823Z,52.58
2018-12-18T07:13:39.198Z,55.35
2018-12-18T07:14:14.218Z,57.40
2018-12-18T07:14:48.890Z,59.35
2018-12-18T07:15:24.110Z,57.03
2018-12-18T07:16:01.890Z,56.83
2018-12-18T07:16:36.531Z,56.15
2018-12-18T07:17:15.530Z,54.90
2018-12-18T07:17:52.090Z,56.25
2018-12-18T07:18:28.998Z,52.10
2018-12-18T07:19:08.050Z,55.45
2018-12-18T07:19:42.670Z,55.23
2018-12-18T07:20:18.358Z,55.70
2018-12-18T07:20:54.170Z,56.35
2018-12-18T07:21:29.930Z,54.45
2018-12-18T07:22:04.874Z,51.28
2018-12-18T07:22:43.852Z,51.02
2018-12-18T07:23:19.267Z,50.35
2018-12-18T07:23:55.003Z,50.92
2018-12-18T07:24:31.465Z,47.38
2018-12-18T07:25:07.333Z,50.45
2018-12-18T07:25:42.726Z,49.90
2018-12-18T07:26:18.960Z,48.73
2018-12-18T07:26:54.542Z,51.70
2018-12-18T07:27:31.121Z,48.45
2018-12-18T07:28:07.640Z,48.08
2018-12-18T07:28:43.356Z,49.55
2018-12-18T07:29:18.739Z,49.42
2018-12-18T07:29:56.795Z,48.38
2018-12-18T07:30:36.476Z,48.38
2018-12-18T07:31:11.556Z,49.23
2018-12-18T07:31:46.335Z,49.95
2018-12-18T07:32:21.119Z,55.05
2018-12-18T07:32:56.196Z,55.28
2018-12-18T07:33:31.385Z,50.40
2018-12-18T07:34:07.677Z,48.02
2018-12-18T07:34:48.549Z,46.90
2018-12-18T07:35:23.606Z,46.10
2018-12-18T07:35:58.276Z,49.50